sensor_id;sensor_type;location;lat;lon;timestamp;P1;durP1;ratioP1;P2;durP2;ratioP2
537;SDS011;254;48.524;8.926;2022-12-10T00:00:04;35.9;;;26.3;;
537;SDS011;254;48.524;8.926;2022-12-10T00:01:03;33.9;;;24.9;;
537;SDS011;254;48.524;8.926;2022-12-10T00:02:02;32.9;;;25.7;;
537;SDS011;254;48.524;8.926;2022-12-10T00:03:02;34.3;;;26.8;;
537;SDS011;254;48.524;8.926;2022-12-10T00:04:02;35.4;;;27.0;;
537;SDS011;254;48.524;8.926;2022-12-10T00:05:03;38.0;;;27.6;;
537;SDS011;254;48.524;8.926;2022-12-10T00:06:03;37.3;;;27.4;;
537;SDS011;254;48.524;8.926;2022-12-10T00:07:03;38.2;;;28.0;;
537;SDS011;254;48.524;8.926;2022-12-10T00:08:02;42.5;;;29.0;;
537;SDS011;254;48.524;8.926;2022-12-10T00:09:03;41.6;;;28.8;;
537;SDS011;254;48.524;8.926;2022-12-10T00:10:02;38.8;;;28.1;;
537;SDS011;254;48.524;8.926;2022-12-10T00:11:03;41.3;;;28.0;;
537;SDS011;254;48.524;8.926;2022-12-10T00:12:02;35.7;;;27.0;;
537;SDS011;254;48.524;8.926;2022-12-10T00:13:02;37.8;;;28.8;;
537;SDS011;254;48.524;8.926;2022-12-10T00:14:02;38.9;;;28.2;;
537;SDS011;254;48.524;8.926;2022-12-10T00:15:02;43.2;;;28.4;;
537;SDS011;254;48.524;8.926;2022-12-10T00:16:03;39.4;;;28.4;;
537;SDS011;254;48.524;8.926;2022-12-10T00:17:02;39.4;;;28.5;;
537;SDS011;254;48.524;8.926;2022-12-10T00:18:02;37.6;;;28.6;;
537;SDS011;254;48.524;8.926;2022-12-10T00:19:02;37.7;;;28.6;;
537;SDS011;254;48.524;8.926;2022-12-10T00:20:03;37.0;;;27.5;;
537;SDS011;254;48.524;8.926;2022-12-10T00:21:02;39.0;;;28.0;;
537;SDS011;254;48.524;8.926;2022-12-10T00:22:03;44.2;;;29.0;;
537;SDS011;254;48.524;8.926;2022-12-10T00:23:01;45.6;;;30.3;;
537;SDS011;254;48.524;8.926;2022-12-10T00:24:03;41.6;;;28.4;;
537;SDS011;254;48.524;8.926;2022-12-10T00:25:02;39.0;;;27.1;;
537;SDS011;254;48.524;8.926;2022-12-10T00:26:03;34.8;;;26.0;;
537;SDS011;254;48.524;8.926;2022-12-10T00:27:02;40.7;;;27.2;;
537;SDS011;254;48.524;8.926;2022-12-10T00:28:02;42.6;;;28.5;;
537;SDS011;254;48.524;8.926;2022-12-10T00:29:03;40.6;;;28.7;;
537;SDS011;254;48.524;8.926;2022-12-10T00:30:02;42.9;;;27.9;;
537;SDS011;254;48.524;8.926;2022-12-10T00:31:03;35.9;;;26.6;;
537;SDS011;254;48.524;8.926;2022-12-10T00:32:02;35.7;;;25.7;;
537;SDS011;254;48.524;8.926;2022-12-10T00:33:03;32.8;;;24.5;;
537;SDS011;254;48.524;8.926;2022-12-10T00:34:03;33.2;;;22.5;;
537;SDS011;254;48.524;8.926;2022-12-10T00:35:02;28.1;;;22.0;;
537;SDS011;254;48.524;8.926;2022-12-10T00:36:03;28.8;;;21.1;;
537;SDS011;254;48.524;8.926;2022-12-10T00:37:03;29.3;;;22.0;;
537;SDS011;254;48.524;8.926;2022-12-10T00:38:02;26.8;;;21.0;;
537;SDS011;254;48.524;8.926;2022-12-10T00:39:03;28.6;;;21.6;;
537;SDS011;254;48.524;8.926;2022-12-10T00:40:03;28.4;;;21.8;;
537;SDS011;254;48.524;8.926;2022-12-10T00:41:02;27.9;;;20.9;;
537;SDS011;254;48.524;8.926;2022-12-10T00:42:02;31.4;;;21.5;;
537;SDS011;254;48.524;8.926;2022-12-10T00:43:03;30.0;;;21.8;;
537;SDS011;254;48.524;8.926;2022-12-10T00:44:01;30.6;;;21.8;;
537;SDS011;254;48.524;8.926;2022-12-10T00:45:02;33.8;;;21.9;;
537;SDS011;254;48.524;8.926;2022-12-10T00:46:03;29.7;;;21.2;;
537;SDS011;254;48.524;8.926;2022-12-10T00:47:01;26.9;;;22.3;;
537;SDS011;254;48.524;8.926;2022-12-10T00:48:02;32.2;;;22.2;;
537;SDS011;254;48.524;8.926;2022-12-10T00:49:02;32.2;;;21.6;;
537;SDS011;254;48.524;8.926;2022-12-10T00:50:02;31.4;;;22.4;;
537;SDS011;254;48.524;8.926;2022-12-10T00:51:02;32.6;;;21.6;;
537;SDS011;254;48.524;8.926;2022-12-10T00:52:02;32.9;;;22.8;;
537;SDS011;254;48.524;8.926;2022-12-10T00:53:02;38.3;;;23.3;;
537;SDS011;254;48.524;8.926;2022-12-10T00:54:02;40.0;;;24.3;;
537;SDS011;254;48.524;8.926;2022-12-10T00:55:02;36.0;;;22.8;;
537;SDS011;254;48.524;8.926;2022-12-10T00:56:02;32.1;;;22.0;;
537;SDS011;254;48.524;8.926;2022-12-10T00:57:02;35.6;;;25.6;;
537;SDS011;254;48.524;8.926;2022-12-10T00:58:02;38.4;;;25.9;;
537;SDS011;254;48.524;8.926;2022-12-10T00:59:02;42.7;;;25.9;;
537;SDS011;254;48.524;8.926;2022-12-10T01:00:03;37.8;;;26.2;;
537;SDS011;254;48.524;8.926;2022-12-10T01:01:10;41.0;;;25.9;;
537;SDS011;254;48.524;8.926;2022-12-10T01:02:03;45.5;;;26.0;;
537;SDS011;254;48.524;8.926;2022-12-10T01:03:02;43.6;;;26.9;;
537;SDS011;254;48.524;8.926;2022-12-10T01:04:03;48.1;;;27.1;;
537;SDS011;254;48.524;8.926;2022-12-10T01:05:02;40.5;;;25.9;;
537;SDS011;254;48.524;8.926;2022-12-10T01:06:10;38.6;;;25.4;;
537;SDS011;254;48.524;8.926;2022-12-10T01:07:03;39.0;;;25.1;;
537;SDS011;254;48.524;8.926;2022-12-10T01:08:02;35.1;;;24.0;;
537;SDS011;254;48.524;8.926;2022-12-10T01:09:03;39.9;;;24.4;;
537;SDS011;254;48.524;8.926;2022-12-10T01:10:02;38.1;;;24.5;;
537;SDS011;254;48.524;8.926;2022-12-10T01:11:02;43.2;;;24.6;;
537;SDS011;254;48.524;8.926;2022-12-10T01:12:02;42.4;;;25.0;;
537;SDS011;254;48.524;8.926;2022-12-10T01:13:03;42.6;;;26.3;;
537;SDS011;254;48.524;8.926;2022-12-10T01:14:02;47.6;;;26.1;;
537;SDS011;254;48.524;8.926;2022-12-10T01:15:02;48.5;;;26.1;;
537;SDS011;254;48.524;8.926;2022-12-10T01:16:02;41.2;;;25.6;;
537;SDS011;254;48.524;8.926;2022-12-10T01:17:04;43.1;;;25.1;;
537;SDS011;254;48.524;8.926;2022-12-10T01:18:03;44.1;;;26.1;;
537;SDS011;254;48.524;8.926;2022-12-10T01:19:03;44.4;;;25.5;;
537;SDS011;254;48.524;8.926;2022-12-10T01:20:02;39.2;;;24.7;;
537;SDS011;254;48.524;8.926;2022-12-10T01:21:03;42.4;;;24.3;;
537;SDS011;254;48.524;8.926;2022-12-10T01:22:03;39.0;;;23.8;;
537;SDS011;254;48.524;8.926;2022-12-10T01:23:02;36.8;;;23.2;;
537;SDS011;254;48.524;8.926;2022-12-10T01:24:03;30.6;;;22.7;;
537;SDS011;254;48.524;8.926;2022-12-10T01:25:03;39.3;;;24.1;;
537;SDS011;254;48.524;8.926;2022-12-10T01:26:02;40.5;;;23.2;;
537;SDS011;254;48.524;8.926;2022-12-10T01:27:02;41.5;;;23.0;;
537;SDS011;254;48.524;8.926;2022-12-10T01:28:03;37.0;;;24.1;;
537;SDS011;254;48.524;8.926;2022-12-10T01:29:02;35.9;;;22.8;;
537;SDS011;254;48.524;8.926;2022-12-10T01:30:02;33.3;;;23.1;;
537;SDS011;254;48.524;8.926;2022-12-10T01:31:04;40.1;;;23.1;;
537;SDS011;254;48.524;8.926;2022-12-10T01:32:02;36.1;;;24.7;;
537;SDS011;254;48.524;8.926;2022-12-10T01:33:02;41.7;;;26.9;;
537;SDS011;254;48.524;8.926;2022-12-10T01:34:03;39.9;;;26.9;;
537;SDS011;254;48.524;8.926;2022-12-10T01:35:02;42.4;;;27.1;;
537;SDS011;254;48.524;8.926;2022-12-10T01:36:02;45.2;;;27.7;;
537;SDS011;254;48.524;8.926;2022-12-10T01:37:02;45.6;;;27.6;;
537;SDS011;254;48.524;8.926;2022-12-10T01:38:03;41.1;;;26.3;;
537;SDS011;254;48.524;8.926;2022-12-10T01:39:03;43.3;;;28.4;;
537;SDS011;254;48.524;8.926;2022-12-10T01:40:03;47.8;;;29.2;;
537;SDS011;254;48.524;8.926;2022-12-10T01:41:02;45.2;;;27.2;;
537;SDS011;254;48.524;8.926;2022-12-10T01:42:03;42.9;;;26.6;;
537;SDS011;254;48.524;8.926;2022-12-10T01:43:02;42.0;;;27.2;;
537;SDS011;254;48.524;8.926;2022-12-10T01:44:04;40.9;;;27.7;;
537;SDS011;254;48.524;8.926;2022-12-10T01:45:06;45.5;;;28.1;;
537;SDS011;254;48.524;8.926;2022-12-10T01:46:02;40.9;;;26.9;;
537;SDS011;254;48.524;8.926;2022-12-10T01:47:02;40.6;;;26.4;;
537;SDS011;254;48.524;8.926;2022-12-10T01:48:02;41.8;;;26.9;;
537;SDS011;254;48.524;8.926;2022-12-10T01:49:03;40.5;;;28.1;;
537;SDS011;254;48.524;8.926;2022-12-10T01:50:03;44.8;;;27.3;;
537;SDS011;254;48.524;8.926;2022-12-10T01:51:02;43.6;;;28.5;;
537;SDS011;254;48.524;8.926;2022-12-10T01:52:03;43.0;;;28.5;;
537;SDS011;254;48.524;8.926;2022-12-10T01:53:02;41.8;;;28.3;;
537;SDS011;254;48.524;8.926;2022-12-10T01:54:04;40.8;;;28.2;;
537;SDS011;254;48.524;8.926;2022-12-10T01:55:07;50.1;;;29.0;;
537;SDS011;254;48.524;8.926;2022-12-10T01:56:02;41.9;;;28.3;;
537;SDS011;254;48.524;8.926;2022-12-10T01:57:03;45.6;;;28.6;;
537;SDS011;254;48.524;8.926;2022-12-10T01:58:01;42.2;;;28.5;;
537;SDS011;254;48.524;8.926;2022-12-10T01:59:02;42.0;;;28.4;;
537;SDS011;254;48.524;8.926;2022-12-10T02:00:04;46.0;;;28.5;;
537;SDS011;254;48.524;8.926;2022-12-10T02:01:04;42.0;;;28.5;;
537;SDS011;254;48.524;8.926;2022-12-10T02:02:04;45.2;;;28.0;;
537;SDS011;254;48.524;8.926;2022-12-10T02:03:04;43.8;;;29.1;;
537;SDS011;254;48.524;8.926;2022-12-10T02:04:05;44.7;;;29.3;;
537;SDS011;254;48.524;8.926;2022-12-10T02:05:05;44.1;;;29.6;;
537;SDS011;254;48.524;8.926;2022-12-10T02:06:05;44.1;;;29.0;;
537;SDS011;254;48.524;8.926;2022-12-10T02:07:05;45.0;;;29.4;;
537;SDS011;254;48.524;8.926;2022-12-10T02:08:05;43.5;;;29.3;;
537;SDS011;254;48.524;8.926;2022-12-10T02:09:05;39.4;;;28.1;;
537;SDS011;254;48.524;8.926;2022-12-10T02:10:04;42.1;;;28.1;;
537;SDS011;254;48.524;8.926;2022-12-10T02:11:03;39.5;;;27.9;;
537;SDS011;254;48.524;8.926;2022-12-10T02:12:05;41.8;;;28.4;;
537;SDS011;254;48.524;8.926;2022-12-10T02:13:04;42.5;;;29.3;;
537;SDS011;254;48.524;8.926;2022-12-10T02:14:03;45.6;;;29.5;;
537;SDS011;254;48.524;8.926;2022-12-10T02:15:04;41.6;;;29.2;;
537;SDS011;254;48.524;8.926;2022-12-10T02:16:03;47.9;;;29.4;;
537;SDS011;254;48.524;8.926;2022-12-10T02:17:03;44.6;;;29.5;;
537;SDS011;254;48.524;8.926;2022-12-10T02:18:03;43.9;;;28.3;;
537;SDS011;254;48.524;8.926;2022-12-10T02:19:03;41.5;;;28.9;;
537;SDS011;254;48.524;8.926;2022-12-10T02:20:04;40.9;;;28.1;;
537;SDS011;254;48.524;8.926;2022-12-10T02:21:03;40.7;;;28.4;;
537;SDS011;254;48.524;8.926;2022-12-10T02:22:01;38.5;;;27.8;;
537;SDS011;254;48.524;8.926;2022-12-10T02:23:03;41.7;;;27.9;;
537;SDS011;254;48.524;8.926;2022-12-10T02:24:02;39.6;;;27.6;;
537;SDS011;254;48.524;8.926;2022-12-10T02:25:02;36.9;;;27.9;;
537;SDS011;254;48.524;8.926;2022-12-10T02:26:03;39.1;;;27.4;;
537;SDS011;254;48.524;8.926;2022-12-10T02:27:03;36.1;;;27.4;;
537;SDS011;254;48.524;8.926;2022-12-10T02:28:03;42.0;;;28.7;;
537;SDS011;254;48.524;8.926;2022-12-10T02:29:05;38.4;;;27.7;;
537;SDS011;254;48.524;8.926;2022-12-10T02:30:02;40.4;;;28.5;;
537;SDS011;254;48.524;8.926;2022-12-10T02:31:03;37.2;;;26.9;;
537;SDS011;254;48.524;8.926;2022-12-10T02:32:03;43.7;;;29.0;;
537;SDS011;254;48.524;8.926;2022-12-10T02:33:02;38.8;;;28.3;;
537;SDS011;254;48.524;8.926;2022-12-10T02:34:03;39.4;;;27.6;;
537;SDS011;254;48.524;8.926;2022-12-10T02:35:04;38.0;;;27.8;;
537;SDS011;254;48.524;8.926;2022-12-10T02:36:03;36.4;;;27.2;;
537;SDS011;254;48.524;8.926;2022-12-10T02:37:03;38.6;;;28.0;;
537;SDS011;254;48.524;8.926;2022-12-10T02:38:03;36.0;;;26.8;;
537;SDS011;254;48.524;8.926;2022-12-10T02:39:02;42.2;;;28.2;;
537;SDS011;254;48.524;8.926;2022-12-10T02:40:04;41.1;;;29.3;;
537;SDS011;254;48.524;8.926;2022-12-10T02:41:04;40.2;;;28.4;;
537;SDS011;254;48.524;8.926;2022-12-10T02:42:03;39.0;;;27.7;;
537;SDS011;254;48.524;8.926;2022-12-10T02:43:02;40.8;;;28.9;;
537;SDS011;254;48.524;8.926;2022-12-10T02:44:03;44.9;;;28.4;;
537;SDS011;254;48.524;8.926;2022-12-10T02:45:03;42.4;;;28.5;;
537;SDS011;254;48.524;8.926;2022-12-10T02:46:02;41.7;;;28.0;;
537;SDS011;254;48.524;8.926;2022-12-10T02:47:02;41.0;;;28.5;;
537;SDS011;254;48.524;8.926;2022-12-10T02:48:03;39.6;;;28.9;;
537;SDS011;254;48.524;8.926;2022-12-10T02:49:03;40.0;;;28.3;;
537;SDS011;254;48.524;8.926;2022-12-10T02:50:03;43.3;;;27.7;;
537;SDS011;254;48.524;8.926;2022-12-10T02:51:02;36.8;;;27.4;;
537;SDS011;254;48.524;8.926;2022-12-10T02:52:06;37.6;;;27.3;;
537;SDS011;254;48.524;8.926;2022-12-10T02:53:02;38.2;;;26.8;;
537;SDS011;254;48.524;8.926;2022-12-10T02:54:03;39.7;;;27.4;;
537;SDS011;254;48.524;8.926;2022-12-10T02:55:03;44.1;;;28.6;;
537;SDS011;254;48.524;8.926;2022-12-10T02:56:06;41.7;;;27.2;;
537;SDS011;254;48.524;8.926;2022-12-10T02:57:03;38.5;;;26.3;;
537;SDS011;254;48.524;8.926;2022-12-10T02:58:05;37.4;;;27.6;;
537;SDS011;254;48.524;8.926;2022-12-10T02:59:06;40.5;;;27.3;;
537;SDS011;254;48.524;8.926;2022-12-10T03:00:06;35.9;;;26.3;;
537;SDS011;254;48.524;8.926;2022-12-10T03:01:03;39.9;;;27.0;;
537;SDS011;254;48.524;8.926;2022-12-10T03:02:04;40.9;;;27.7;;
537;SDS011;254;48.524;8.926;2022-12-10T03:03:11;39.6;;;26.6;;
537;SDS011;254;48.524;8.926;2022-12-10T03:04:03;37.5;;;26.8;;
537;SDS011;254;48.524;8.926;2022-12-10T03:05:03;35.2;;;26.6;;
537;SDS011;254;48.524;8.926;2022-12-10T03:06:09;43.4;;;25.6;;
537;SDS011;254;48.524;8.926;2022-12-10T03:07:04;43.0;;;27.5;;
537;SDS011;254;48.524;8.926;2022-12-10T03:08:03;35.1;;;26.5;;
537;SDS011;254;48.524;8.926;2022-12-10T03:09:03;38.4;;;27.2;;
537;SDS011;254;48.524;8.926;2022-12-10T03:10:03;40.5;;;27.9;;
537;SDS011;254;48.524;8.926;2022-12-10T03:11:04;39.4;;;27.4;;
537;SDS011;254;48.524;8.926;2022-12-10T03:12:06;37.5;;;27.2;;
537;SDS011;254;48.524;8.926;2022-12-10T03:13:03;36.7;;;27.6;;
537;SDS011;254;48.524;8.926;2022-12-10T03:14:03;36.6;;;26.0;;
537;SDS011;254;48.524;8.926;2022-12-10T03:15:06;35.1;;;26.4;;
537;SDS011;254;48.524;8.926;2022-12-10T03:16:03;37.1;;;26.5;;
537;SDS011;254;48.524;8.926;2022-12-10T03:17:02;39.0;;;27.0;;
537;SDS011;254;48.524;8.926;2022-12-10T03:18:02;37.9;;;27.5;;
537;SDS011;254;48.524;8.926;2022-12-10T03:19:04;39.0;;;27.3;;
537;SDS011;254;48.524;8.926;2022-12-10T03:20:03;36.9;;;28.3;;
537;SDS011;254;48.524;8.926;2022-12-10T03:21:02;41.7;;;28.7;;
537;SDS011;254;48.524;8.926;2022-12-10T03:22:02;38.2;;;28.0;;
537;SDS011;254;48.524;8.926;2022-12-10T03:23:02;34.5;;;25.4;;
537;SDS011;254;48.524;8.926;2022-12-10T03:24:03;40.5;;;28.0;;
537;SDS011;254;48.524;8.926;2022-12-10T03:25:01;35.3;;;27.2;;
537;SDS011;254;48.524;8.926;2022-12-10T03:26:02;35.1;;;26.5;;
537;SDS011;254;48.524;8.926;2022-12-10T03:27:03;38.3;;;27.0;;
537;SDS011;254;48.524;8.926;2022-12-10T03:28:02;36.2;;;26.3;;
537;SDS011;254;48.524;8.926;2022-12-10T03:29:03;38.1;;;27.1;;
537;SDS011;254;48.524;8.926;2022-12-10T03:30:03;36.3;;;27.0;;
537;SDS011;254;48.524;8.926;2022-12-10T03:31:02;35.2;;;26.3;;
537;SDS011;254;48.524;8.926;2022-12-10T03:32:02;34.0;;;26.3;;
537;SDS011;254;48.524;8.926;2022-12-10T03:33:02;41.7;;;27.4;;
537;SDS011;254;48.524;8.926;2022-12-10T03:34:02;35.5;;;26.8;;
537;SDS011;254;48.524;8.926;2022-12-10T03:35:02;36.6;;;26.2;;
537;SDS011;254;48.524;8.926;2022-12-10T03:36:03;34.2;;;26.5;;
537;SDS011;254;48.524;8.926;2022-12-10T03:37:03;37.8;;;26.7;;
537;SDS011;254;48.524;8.926;2022-12-10T03:38:02;38.2;;;26.8;;
537;SDS011;254;48.524;8.926;2022-12-10T03:39:02;40.9;;;27.1;;
537;SDS011;254;48.524;8.926;2022-12-10T03:40:04;36.8;;;26.9;;
537;SDS011;254;48.524;8.926;2022-12-10T03:41:02;36.1;;;27.1;;
537;SDS011;254;48.524;8.926;2022-12-10T03:42:03;38.2;;;26.0;;
537;SDS011;254;48.524;8.926;2022-12-10T03:43:02;35.1;;;26.9;;
537;SDS011;254;48.524;8.926;2022-12-10T03:44:02;36.8;;;26.6;;
537;SDS011;254;48.524;8.926;2022-12-10T03:45:03;38.6;;;26.0;;
537;SDS011;254;48.524;8.926;2022-12-10T03:46:02;34.8;;;26.4;;
537;SDS011;254;48.524;8.926;2022-12-10T03:47:03;38.1;;;27.7;;
537;SDS011;254;48.524;8.926;2022-12-10T03:48:02;39.7;;;28.1;;
537;SDS011;254;48.524;8.926;2022-12-10T03:49:03;38.1;;;27.4;;
537;SDS011;254;48.524;8.926;2022-12-10T03:50:03;40.1;;;28.0;;
537;SDS011;254;48.524;8.926;2022-12-10T03:51:03;34.2;;;25.6;;
537;SDS011;254;48.524;8.926;2022-12-10T03:52:02;36.5;;;26.3;;
537;SDS011;254;48.524;8.926;2022-12-10T03:53:02;35.2;;;27.0;;
537;SDS011;254;48.524;8.926;2022-12-10T03:54:03;40.4;;;27.7;;
537;SDS011;254;48.524;8.926;2022-12-10T03:55:02;37.5;;;27.2;;
537;SDS011;254;48.524;8.926;2022-12-10T03:56:02;35.9;;;25.8;;
537;SDS011;254;48.524;8.926;2022-12-10T03:57:03;39.1;;;27.1;;
537;SDS011;254;48.524;8.926;2022-12-10T03:58:01;37.8;;;27.4;;
537;SDS011;254;48.524;8.926;2022-12-10T03:59:02;38.6;;;26.9;;
537;SDS011;254;48.524;8.926;2022-12-10T04:00:05;34.1;;;26.8;;
537;SDS011;254;48.524;8.926;2022-12-10T04:01:02;39.8;;;26.4;;
537;SDS011;254;48.524;8.926;2022-12-10T04:02:02;38.2;;;27.7;;
537;SDS011;254;48.524;8.926;2022-12-10T04:03:02;39.6;;;26.9;;
537;SDS011;254;48.524;8.926;2022-12-10T04:04:02;38.1;;;27.2;;
537;SDS011;254;48.524;8.926;2022-12-10T04:05:03;35.5;;;25.7;;
537;SDS011;254;48.524;8.926;2022-12-10T04:06:03;38.1;;;26.9;;
537;SDS011;254;48.524;8.926;2022-12-10T04:07:02;38.2;;;26.8;;
537;SDS011;254;48.524;8.926;2022-12-10T04:08:03;37.8;;;27.0;;
537;SDS011;254;48.524;8.926;2022-12-10T04:09:01;36.7;;;26.4;;
537;SDS011;254;48.524;8.926;2022-12-10T04:10:02;35.8;;;25.7;;
537;SDS011;254;48.524;8.926;2022-12-10T04:11:03;35.9;;;26.0;;
537;SDS011;254;48.524;8.926;2022-12-10T04:12:02;36.0;;;25.5;;
537;SDS011;254;48.524;8.926;2022-12-10T04:13:02;39.4;;;27.1;;
537;SDS011;254;48.524;8.926;2022-12-10T04:14:03;37.5;;;26.9;;
537;SDS011;254;48.524;8.926;2022-12-10T04:15:02;37.1;;;26.6;;
537;SDS011;254;48.524;8.926;2022-12-10T04:16:02;33.0;;;26.2;;
537;SDS011;254;48.524;8.926;2022-12-10T04:17:02;33.6;;;25.2;;
537;SDS011;254;48.524;8.926;2022-12-10T04:18:02;37.5;;;26.6;;
537;SDS011;254;48.524;8.926;2022-12-10T04:19:02;34.3;;;25.7;;
537;SDS011;254;48.524;8.926;2022-12-10T04:20:03;37.3;;;26.2;;
537;SDS011;254;48.524;8.926;2022-12-10T04:21:02;34.8;;;25.6;;
537;SDS011;254;48.524;8.926;2022-12-10T04:22:02;34.5;;;25.5;;
537;SDS011;254;48.524;8.926;2022-12-10T04:23:02;35.2;;;25.9;;
537;SDS011;254;48.524;8.926;2022-12-10T04:24:03;34.8;;;27.5;;
537;SDS011;254;48.524;8.926;2022-12-10T04:25:02;33.4;;;26.6;;
537;SDS011;254;48.524;8.926;2022-12-10T04:26:03;34.4;;;25.3;;
537;SDS011;254;48.524;8.926;2022-12-10T04:27:03;37.1;;;27.9;;
537;SDS011;254;48.524;8.926;2022-12-10T04:28:02;33.5;;;26.8;;
537;SDS011;254;48.524;8.926;2022-12-10T04:29:03;33.9;;;25.9;;
537;SDS011;254;48.524;8.926;2022-12-10T04:30:02;35.1;;;25.9;;
537;SDS011;254;48.524;8.926;2022-12-10T04:31:02;37.5;;;26.7;;
537;SDS011;254;48.524;8.926;2022-12-10T04:32:02;33.7;;;26.2;;
537;SDS011;254;48.524;8.926;2022-12-10T04:33:02;36.8;;;26.6;;
537;SDS011;254;48.524;8.926;2022-12-10T04:34:02;34.1;;;27.2;;
537;SDS011;254;48.524;8.926;2022-12-10T04:35:04;38.7;;;27.0;;
537;SDS011;254;48.524;8.926;2022-12-10T04:36:03;33.1;;;25.8;;
537;SDS011;254;48.524;8.926;2022-12-10T04:37:02;34.8;;;26.0;;
537;SDS011;254;48.524;8.926;2022-12-10T04:38:03;33.5;;;26.4;;
537;SDS011;254;48.524;8.926;2022-12-10T04:39:02;36.8;;;26.8;;
537;SDS011;254;48.524;8.926;2022-12-10T04:40:03;33.7;;;27.0;;
537;SDS011;254;48.524;8.926;2022-12-10T04:41:02;35.7;;;26.4;;
537;SDS011;254;48.524;8.926;2022-12-10T04:42:02;33.3;;;25.7;;
537;SDS011;254;48.524;8.926;2022-12-10T04:43:02;34.3;;;25.8;;
537;SDS011;254;48.524;8.926;2022-12-10T04:44:03;33.3;;;25.8;;
537;SDS011;254;48.524;8.926;2022-12-10T04:45:02;35.9;;;27.2;;
537;SDS011;254;48.524;8.926;2022-12-10T04:46:03;35.1;;;25.5;;
537;SDS011;254;48.524;8.926;2022-12-10T04:47:03;34.1;;;26.1;;
537;SDS011;254;48.524;8.926;2022-12-10T04:48:02;37.0;;;26.5;;
537;SDS011;254;48.524;8.926;2022-12-10T04:49:02;34.9;;;25.6;;
537;SDS011;254;48.524;8.926;2022-12-10T04:50:03;34.3;;;26.3;;
537;SDS011;254;48.524;8.926;2022-12-10T04:51:02;34.9;;;25.6;;
537;SDS011;254;48.524;8.926;2022-12-10T04:52:02;35.8;;;26.5;;
537;SDS011;254;48.524;8.926;2022-12-10T04:53:02;36.2;;;26.8;;
537;SDS011;254;48.524;8.926;2022-12-10T04:54:04;34.3;;;26.5;;
537;SDS011;254;48.524;8.926;2022-12-10T04:55:03;34.6;;;25.8;;
537;SDS011;254;48.524;8.926;2022-12-10T04:56:02;36.9;;;26.0;;
537;SDS011;254;48.524;8.926;2022-12-10T04:57:02;34.1;;;25.9;;
537;SDS011;254;48.524;8.926;2022-12-10T04:58:02;32.5;;;24.7;;
537;SDS011;254;48.524;8.926;2022-12-10T04:59:02;35.1;;;25.5;;
537;SDS011;254;48.524;8.926;2022-12-10T05:00:03;35.5;;;25.8;;
537;SDS011;254;48.524;8.926;2022-12-10T05:01:02;34.2;;;25.4;;
537;SDS011;254;48.524;8.926;2022-12-10T05:02:02;31.0;;;24.9;;
537;SDS011;254;48.524;8.926;2022-12-10T05:03:03;36.1;;;26.4;;
537;SDS011;254;48.524;8.926;2022-12-10T05:04:03;31.8;;;24.8;;
537;SDS011;254;48.524;8.926;2022-12-10T05:05:02;36.5;;;26.9;;
537;SDS011;254;48.524;8.926;2022-12-10T05:06:02;38.5;;;27.1;;
537;SDS011;254;48.524;8.926;2022-12-10T05:07:02;35.3;;;26.0;;
537;SDS011;254;48.524;8.926;2022-12-10T05:08:02;33.8;;;26.0;;
537;SDS011;254;48.524;8.926;2022-12-10T05:09:03;37.0;;;27.2;;
537;SDS011;254;48.524;8.926;2022-12-10T05:10:02;37.3;;;26.9;;
537;SDS011;254;48.524;8.926;2022-12-10T05:11:03;35.4;;;26.8;;
537;SDS011;254;48.524;8.926;2022-12-10T05:12:02;35.8;;;27.5;;
537;SDS011;254;48.524;8.926;2022-12-10T05:13:02;35.2;;;27.2;;
537;SDS011;254;48.524;8.926;2022-12-10T05:14:03;37.2;;;28.0;;
537;SDS011;254;48.524;8.926;2022-12-10T05:15:02;41.0;;;29.8;;
537;SDS011;254;48.524;8.926;2022-12-10T05:16:02;47.0;;;31.4;;
537;SDS011;254;48.524;8.926;2022-12-10T05:17:02;46.2;;;31.5;;
537;SDS011;254;48.524;8.926;2022-12-10T05:18:02;42.6;;;30.7;;
537;SDS011;254;48.524;8.926;2022-12-10T05:19:02;43.6;;;28.9;;
537;SDS011;254;48.524;8.926;2022-12-10T05:20:03;38.2;;;28.2;;
537;SDS011;254;48.524;8.926;2022-12-10T05:21:03;36.4;;;27.6;;
537;SDS011;254;48.524;8.926;2022-12-10T05:22:02;39.8;;;28.1;;
537;SDS011;254;48.524;8.926;2022-12-10T05:23:02;37.5;;;27.3;;
537;SDS011;254;48.524;8.926;2022-12-10T05:24:03;35.6;;;27.3;;
537;SDS011;254;48.524;8.926;2022-12-10T05:25:02;37.9;;;27.8;;
537;SDS011;254;48.524;8.926;2022-12-10T05:26:03;36.5;;;26.8;;
537;SDS011;254;48.524;8.926;2022-12-10T05:27:02;36.4;;;26.9;;
537;SDS011;254;48.524;8.926;2022-12-10T05:28:02;37.0;;;27.9;;
537;SDS011;254;48.524;8.926;2022-12-10T05:29:02;35.3;;;26.3;;
537;SDS011;254;48.524;8.926;2022-12-10T05:30:03;36.4;;;27.1;;
537;SDS011;254;48.524;8.926;2022-12-10T05:31:02;39.7;;;29.3;;
537;SDS011;254;48.524;8.926;2022-12-10T05:32:04;36.6;;;27.1;;
537;SDS011;254;48.524;8.926;2022-12-10T05:33:01;36.3;;;27.5;;
537;SDS011;254;48.524;8.926;2022-12-10T05:34:02;35.7;;;27.8;;
537;SDS011;254;48.524;8.926;2022-12-10T05:35:03;38.0;;;27.3;;
537;SDS011;254;48.524;8.926;2022-12-10T05:36:03;34.6;;;26.4;;
537;SDS011;254;48.524;8.926;2022-12-10T05:37:02;36.9;;;26.9;;
537;SDS011;254;48.524;8.926;2022-12-10T05:38:02;34.3;;;25.9;;
537;SDS011;254;48.524;8.926;2022-12-10T05:39:03;39.3;;;28.0;;
537;SDS011;254;48.524;8.926;2022-12-10T05:40:03;47.6;;;27.8;;
537;SDS011;254;48.524;8.926;2022-12-10T05:41:03;36.2;;;27.5;;
537;SDS011;254;48.524;8.926;2022-12-10T05:42:02;33.5;;;26.6;;
537;SDS011;254;48.524;8.926;2022-12-10T05:43:02;38.1;;;27.8;;
537;SDS011;254;48.524;8.926;2022-12-10T05:44:03;39.0;;;29.0;;
537;SDS011;254;48.524;8.926;2022-12-10T05:45:02;41.7;;;29.3;;
537;SDS011;254;48.524;8.926;2022-12-10T05:46:02;43.0;;;29.8;;
537;SDS011;254;48.524;8.926;2022-12-10T05:47:02;40.3;;;30.3;;
537;SDS011;254;48.524;8.926;2022-12-10T05:48:02;43.4;;;30.2;;
537;SDS011;254;48.524;8.926;2022-12-10T05:49:02;38.4;;;29.3;;
537;SDS011;254;48.524;8.926;2022-12-10T05:50:02;38.7;;;28.8;;
537;SDS011;254;48.524;8.926;2022-12-10T05:51:03;36.6;;;27.9;;
537;SDS011;254;48.524;8.926;2022-12-10T05:52:03;35.6;;;28.2;;
537;SDS011;254;48.524;8.926;2022-12-10T05:53:02;39.0;;;27.7;;
537;SDS011;254;48.524;8.926;2022-12-10T05:54:03;41.3;;;28.9;;
537;SDS011;254;48.524;8.926;2022-12-10T05:55:03;37.1;;;28.5;;
537;SDS011;254;48.524;8.926;2022-12-10T05:56:03;38.4;;;29.6;;
537;SDS011;254;48.524;8.926;2022-12-10T05:57:02;40.6;;;29.0;;
537;SDS011;254;48.524;8.926;2022-12-10T05:58:02;35.1;;;26.7;;
537;SDS011;254;48.524;8.926;2022-12-10T05:59:02;37.4;;;27.0;;
537;SDS011;254;48.524;8.926;2022-12-10T06:00:02;38.0;;;28.1;;
537;SDS011;254;48.524;8.926;2022-12-10T06:01:05;41.6;;;27.5;;
537;SDS011;254;48.524;8.926;2022-12-10T06:02:02;41.6;;;30.4;;
537;SDS011;254;48.524;8.926;2022-12-10T06:03:02;42.8;;;30.4;;
537;SDS011;254;48.524;8.926;2022-12-10T06:04:03;39.0;;;30.2;;
537;SDS011;254;48.524;8.926;2022-12-10T06:05:02;45.1;;;31.6;;
537;SDS011;254;48.524;8.926;2022-12-10T06:06:03;41.0;;;30.3;;
537;SDS011;254;48.524;8.926;2022-12-10T06:07:03;41.3;;;31.1;;
537;SDS011;254;48.524;8.926;2022-12-10T06:08:02;40.0;;;29.6;;
537;SDS011;254;48.524;8.926;2022-12-10T06:09:03;39.9;;;28.1;;
537;SDS011;254;48.524;8.926;2022-12-10T06:10:03;41.2;;;30.1;;
537;SDS011;254;48.524;8.926;2022-12-10T06:11:03;40.4;;;28.8;;
537;SDS011;254;48.524;8.926;2022-12-10T06:12:02;40.9;;;29.6;;
537;SDS011;254;48.524;8.926;2022-12-10T06:13:02;39.3;;;29.1;;
537;SDS011;254;48.524;8.926;2022-12-10T06:14:02;41.3;;;30.3;;
537;SDS011;254;48.524;8.926;2022-12-10T06:15:03;40.7;;;29.1;;
537;SDS011;254;48.524;8.926;2022-12-10T06:16:03;41.5;;;28.3;;
537;SDS011;254;48.524;8.926;2022-12-10T06:17:02;42.0;;;29.2;;
537;SDS011;254;48.524;8.926;2022-12-10T06:18:02;40.1;;;30.0;;
537;SDS011;254;48.524;8.926;2022-12-10T06:19:02;39.5;;;29.1;;
537;SDS011;254;48.524;8.926;2022-12-10T06:20:03;40.8;;;30.1;;
537;SDS011;254;48.524;8.926;2022-12-10T06:21:02;37.5;;;29.4;;
537;SDS011;254;48.524;8.926;2022-12-10T06:22:02;36.3;;;27.9;;
537;SDS011;254;48.524;8.926;2022-12-10T06:23:02;37.3;;;27.7;;
537;SDS011;254;48.524;8.926;2022-12-10T06:24:03;36.9;;;28.3;;